Time;durP1;ratioP1;P1;durP2;ratioP2;P2;SDS_P1;SDS_P2;PMS_P1;PMS_P2;Temp;Humidity;BMP_temperature;BMP_pressure;BME280_temperature;BME280_humidity;BME280_pressure;Samples;Min_cycle;Max_cycle;Signal;HPM_P1;HPM_P2
2022/01/12 00:00:39;;;;;;;7.57;1.33;;;;;;;18.61;31.83;103349.50;4231981;28;20027;-43
2022/01/12 00:02:41;;;;;;;4.18;1.27;;;;;;;18.64;31.45;103356.53;4231560;28;20073;-42
2022/01/12 00:04:42;;;;;;;2.65;1.05;;;;;;;18.61;31.45;103335.63;4230392;28;20036;-42
2022/01/12 00:06:43;;;;;;;3.78;1.52;;;;;;;18.63;31.45;103338.19;4230928;27;20036;-45
2022/01/12 00:08:47;;;;;;;3.83;1.40;;;;;;;18.62;31.56;103340.09;4230845;28;20039;-42
2022/01/12 00:10:48;;;;;;;4.13;1.30;;;;;;;18.62;31.48;103333.72;4230441;28;20096;-43
2022/01/12 00:12:52;;;;;;;2.78;1.42;;;;;;;18.61;31.77;103332.84;4230654;28;20208;-41
2022/01/12 00:14:54;;;;;;;3.22;1.65;;;;;;;18.60;31.50;103325.59;4230705;28;20372;-43
2022/01/12 00:16:59;;;;;;;2.60;1.45;;;;;;;18.60;31.43;103325.59;4213745;28;20048;-42
2022/01/12 00:19:00;;;;;;;;;;;;;;;18.56;31.58;103329.84;4215032;28;20032;-44
2022/01/12 00:21:02;;;;;;;6.60;1.40;;;;;;;18.61;31.50;103319.00;4214726;28;19916;-42
2022/01/12 00:23:03;;;;;;;2.67;1.40;;;;;;;18.61;31.52;103318.13;4214719;28;20456;-43
2022/01/12 00:25:24;;;;;;;2.45;1.30;;;;;;;18.59;31.39;103323.03;4229362;28;20085;-43
2022/01/12 00:34:25;;;;;;;7.72;2.00;;;;;;;18.65;31.81;103333.31;4232198;28;20104;-42
2022/01/12 00:36:28;;;;;;;2.38;1.40;;;;;;;18.69;31.60;103327.16;4230651;28;20047;-43
2022/01/12 00:38:29;;;;;;;7.20;1.70;;;;;;;18.72;31.80;103328.66;4230344;28;20449;-42
2022/01/12 00:40:31;;;;;;;7.07;1.55;;;;;;;18.72;31.84;103328.66;4230511;28;20436;-42
2022/01/12 00:42:33;;;;;;;3.45;1.70;;;;;;;18.77;31.37;103338.06;4230513;28;20027;-41
2022/01/12 00:44:36;;;;;;;7.68;2.10;;;;;;;18.82;31.63;103347.66;4231209;28;20077;-42
2022/01/12 00:46:39;;;;;;;4.13;1.58;;;;;;;18.82;31.65;103336.56;4230602;28;20043;-41
2022/01/12 00:48:44;;;;;;;5.47;2.20;;;;;;;18.88;31.60;103350.47;4230063;28;20508;-44
2022/01/12 00:50:46;;;;;;;6.82;1.65;;;;;;;18.93;31.65;103347.06;4229581;28;20540;-44
2022/01/12 00:52:48;;;;;;;5.07;1.75;;;;;;;18.98;31.55;103350.06;4212396;28;20036;-43
2022/01/12 00:54:49;;;;;;;4.65;2.15;;;;;;;18.99;31.67;103346.22;4230183;28;20040;-42
2022/01/12 00:56:51;;;;;;;7.78;2.15;;;;;;;19.03;31.25;103353.06;4230630;28;20043;-42
2022/01/12 00:58:53;;;;;;;5.18;1.65;;;;;;;19.02;31.26;103346.66;4211923;28;20040;-42
2022/01/12 01:00:54;;;;;;;5.70;2.00;;;;;;;19.08;31.29;103341.34;4230679;28;20073;-44
2022/01/12 01:02:56;;;;;;;7.38;2.10;;;;;;;19.11;31.42;103349.25;4230550;28;20043;-43
2022/01/12 01:04:58;;;;;;;4.75;1.55;;;;;;;19.11;31.28;103344.56;4229865;28;20039;-43
2022/01/12 01:07:03;;;;;;;8.80;1.90;;;;;;;19.11;31.22;103343.72;4219349;28;20036;-43
2022/01/12 01:09:06;;;;;;;4.70;1.80;;;;;;;19.15;31.15;103334.75;4230025;28;20097;-43
2022/01/12 01:11:07;;;;;;;6.15;1.70;;;;;;;19.16;31.35;103330.03;4230260;28;20047;-42
2022/01/12 01:13:09;;;;;;;5.93;1.80;;;;;;;19.12;31.39;103321.28;4229998;28;20043;-42
2022/01/12 01:15:14;;;;;;;3.45;1.80;;;;;;;19.18;31.07;103325.13;4230788;28;20043;-42
2022/01/12 01:26:35;;;;;;;4.05;1.73;;;;;;;19.26;31.10;103292.47;4230636;28;20108;-43
2022/01/12 01:28:36;;;;;;;4.55;1.73;;;;;;;19.28;31.20;103290.31;4229476;28;20497;-43
2022/01/12 01:30:40;;;;;;;5.60;1.80;;;;;;;19.29;31.23;103286.50;4230523;28;20040;-43
2022/01/12 01:32:43;;;;;;;3.47;1.38;;;;;;;19.30;31.55;103285.44;4230225;28;20105;-43
2022/01/12 01:34:47;;;;;;;4.82;1.30;;;;;;;19.32;31.33;103289.91;4227837;28;20093;-42
2022/01/12 01:36:53;;;;;;;3.50;1.88;;;;;;;19.29;31.32;103280.09;4229858;28;20490;-42
2022/01/12 01:38:57;;;;;;;3.58;1.50;;;;;;;19.35;31.28;103287.56;4229259;28;20453;-42
2022/01/12 01:40:58;;;;;;;3.58;1.65;;;;;;;19.37;31.14;103287.34;4229805;28;20065;-43
2022/01/12 01:54:26;;;;;;;2.75;1.63;;;;;;;19.43;31.20;103292.06;4233636;28;20096;-42
2022/01/12 01:56:27;;;;;;;2.08;1.40;;;;;;;19.36;31.41;103283.72;4233229;28;20458;-42
2022/01/12 01:58:28;;;;;;;5.30;1.60;;;;;;;19.42;31.21;103290.31;4233546;28;20040;-43
2022/01/12 02:00:32;;;;;;;3.65;1.50;;;;;;;19.42;31.23;103296.72;4233740;28;20043;-41
2022/01/12 02:02:34;;;;;;;4.90;1.83;;;;;;;19.43;31.64;103292.06;4233361;28;20039;-44
2022/01/12 02:04:38;;;;;;;2.42;1.35;;;;;;;19.42;31.59;103293.94;4233067;28;20032;-44
2022/01/12 02:06:41;;;;;;;4.03;1.30;;;;;;;19.44;31.67;103282.66;4232516;28;20486;-41
2022/01/12 02:08:43;;;;;;;4.88;1.67;;;;;;;19.45;31.51;103274.09;4225712;28;20089;-42
2022/01/12 02:10:44;;;;;;;7.72;1.50;;;;;;;19.42;31.60;103257.00;4233248;28;20023;-43
2022/01/12 02:12:51;;;;;;;3.35;1.30;;;;;;;19.44;31.30;103261.28;4233426;28;20084;-42
2022/01/12 02:14:54;;;;;;;3.45;1.63;;;;;;;19.45;31.26;103262.97;4232681;28;20043;-42
2022/01/12 02:17:03;;;;;;;6.22;1.70;;;;;;;19.46;31.40;103263.84;4233384;28;20032;-41
2022/01/12 02:39:56;;;;;;;2.35;1.33;;;;;;;19.44;31.63;103244.63;4231799;27;20436;-41
2022/01/12 02:41:57;;;;;;;3.45;1.33;;;;;;;19.44;31.45;103249.31;4231719;27;20085;-41
2022/01/12 02:50:57;;;;;;;5.22;1.67;;;;;;;19.40;31.41;103248.03;4230035;28;20085;-42
2022/01/12 02:55:18;;;;;;;6.35;1.35;;;;;;;19.36;31.74;103252.31;4230609;27;20428;-41
2022/01/12 02:57:20;;;;;;;3.72;1.48;;;;;;;19.35;31.62;103250.63;4229059;27;20031;-41
2022/01/12 02:59:25;;;;;;;5.20;2.30;;;;;;;19.34;31.45;103237.81;4229105;27;20043;-41
2022/01/12 03:03:37;;;;;;;2.08;1.20;;;;;;;19.31;31.92;103216.88;4226533;27;20028;-41
2022/01/12 03:05:47;;;;;;;2.53;1.63;;;;;;;19.30;31.90;103216.03;4234733;27;20179;-41
2022/01/12 03:07:48;;;;;;;2.97;1.00;;;;;;;19.30;31.55;103215.16;4233972;27;20077;-42
2022/01/12 03:09:50;;;;;;;2.38;1.40;;;;;;;19.25;31.60;103201.09;4244270;27;20123;-41
2022/01/12 03:11:51;;;;;;;4.38;1.40;;;;;;;19.26;31.89;103217.50;4239787;27;20470;-41
2022/01/12 03:13:54;;;;;;;4.00;1.70;;;;;;;19.27;31.79;103222.00;4249530;27;20087;-41
2022/01/12 03:15:56;;;;;;;4.07;1.67;;;;;;;19.25;31.73;103224.16;4248627;27;20116;-45
2022/01/12 03:17:58;;;;;;;2.88;1.15;;;;;;;19.23;31.61;103215.16;4235193;27;20040;-42
2022/01/12 03:20:00;;;;;;;2.00;1.23;;;;;;;19.23;31.68;103214.31;4229825;27;20120;-41
2022/01/12 03:22:01;;;;;;;4.03;1.30;;;;;;;19.21;31.62;103217.31;4237357;27;20043;-41
2022/01/12 03:24:03;;;;;;;5.88;1.35;;;;;;;19.19;32.08;103213.88;4240729;27;20096;-42
2022/01/12 03:26:07;;;;;;;9.73;1.73;;;;;;;19.14;31.94;103205.34;4245766;27;20490;-42
2022/01/12 03:28:11;;;;;;;3.65;1.40;;;;;;;19.13;31.91;103208.34;4246811;27;20430;-42
2022/01/12 03:30:13;;;;;;;8.77;1.60;;;;;;;19.11;32.25;103210.50;4240339;27;20039;-41
2022/01/12 03:32:23;;;;;;;6.45;1.70;;;;;;;19.05;32.42;103201.06;4248257;27;20485;-41
2022/01/12 03:34:29;;;;;;;6.85;1.77;;;;;;;19.09;32.08;103202.34;4237977;27;20040;-42
2022/01/12 03:37:05;;;;;;;6.25;1.38;;;;;;;19.04;32.32;103196.59;4227331;28;20047;-43
2022/01/12 03:39:08;;;;;;;8.73;1.33;;;;;;;19.05;32.15;103189.97;4220334;27;20040;-42
2022/01/12 03:41:09;;;;;;;4.63;1.52;;;;;;;19.09;32.20;103195.97;4226741;28;20092;-42
2022/01/12 03:43:10;;;;;;;6.63;1.48;;;;;;;19.05;32.31;103190.81;4230383;28;20051;-42
2022/01/12 03:45:12;;;;;;;2.85;1.50;;;;;;;19.08;32.48;103195.09;4227645;28;20039;-43
2022/01/12 03:47:17;;;;;;;3.83;1.65;;;;;;;19.07;32.39;103190.63;4230298;28;20122;-43
2022/01/12 03:49:20;;;;;;;7.47;1.50;;;;;;;19.14;32.11;103176.75;4216660;28;20040;-41
2022/01/12 03:51:22;;;;;;;7.60;1.73;;;;;;;19.15;32.18;103182.09;4215370;28;20544;-42
2022/01/12 03:53:26;;;;;;;2.95;1.50;;;;;;;19.13;32.42;103191.69;4229394;28;20405;-41
2022/01/12 03:55:28;;;;;;;4.93;1.40;;;;;;;19.11;32.35;103183.59;4231385;28;20336;-43
2022/01/12 03:57:29;;;;;;;3.08;1.38;;;;;;;19.14;32.37;103174.81;4216927;28;20093;-41
2022/01/12 03:59:31;;;;;;;4.75;1.65;;;;;;;19.14;32.34;103166.50;4218415;28;20100;-41
2022/01/12 04:01:35;;;;;;;3.88;1.25;;;;;;;19.17;32.27;103176.31;4230563;28;20047;-42
2022/01/12 04:03:44;;;;;;;3.38;1.10;;;;;;;19.19;32.39;103180.56;4230176;28;20036;-43
2022/01/12 04:10:15;;;;;;;4.40;1.65;;;;;;;19.25;32.42;103170.56;4229894;28;20171;-43
2022/01/12 04:12:17;;;;;;;3.28;1.30;;;;;;;19.28;32.33;103178.44;4231195;28;20084;-42
2022/01/12 04:14:18;;;;;;;2.85;1.90;;;;;;;19.30;32.21;103174.38;4229826;28;20118;-44
2022/01/12 04:16:20;;;;;;;4.93;1.30;;;;;;;19.30;32.33;103177.16;4229896;28;20459;-43
2022/01/12 04:18:21;;;;;;;3.15;1.70;;;;;;;19.30;32.79;103182.72;4229405;28;20031;-42
2022/01/12 04:20:23;;;;;;;3.03;1.67;;;;;;;19.34;32.48;103165.63;4218687;28;20063;-43
2022/01/12 04:24:44;;;;;;;2.17;1.40;;;;;;;19.35;32.55;103159.00;4226886;28;20069;-42
2022/01/12 04:26:46;;;;;;;5.43;1.80;;;;;;;19.34;33.11;103160.94;4231314;28;20039;-42
2022/01/12 04:28:47;;;;;;;2.78;1.38;;;;;;;19.35;32.93;103167.31;4229948;28;20036;-42
2022/01/12 04:30:50;;;;;;;3.67;1.55;;;;;;;19.34;33.09;103160.06;4217741;28;20039;-42
2022/01/12 04:32:51;;;;;;;2.80;1.50;;;;;;;19.35;33.11;103159.00;4231506;28;20454;-42
2022/01/12 04:34:53;;;;;;;6.22;1.98;;;;;;;19.34;33.49;103143.41;4229395;28;20096;-42
2022/01/12 04:36:54;;;;;;;2.90;1.58;;;;;;;19.36;33.19;103141.25;4217055;28;20460;-41
2022/01/12 04:38:55;;;;;;;4.13;1.75;;;;;;;19.38;33.71;103139.09;4213496;28;20559;-42
2022/01/12 04:40:57;;;;;;;3.50;1.70;;;;;;;19.37;33.76;103132.72;4224793;28;20036;-42
2022/01/12 04:43:01;;;;;;;2.67;1.23;;;;;;;19.38;33.88;103125.22;4223219;28;20193;-42
2022/01/12 04:49:57;;;;;;;3.42;1.50;;;;;;;19.51;39.42;103136.31;4230877;28;20539;-43
2022/01/12 04:52:02;;;;;;;3.63;1.40;;;;;;;19.56;39.50;103125.38;4230861;28;20119;-43
2022/01/12 04:54:04;;;;;;;2.95;1.50;;;;;;;19.55;39.85;103129.25;4229785;28;20575;-41
2022/01/12 04:56:09;;;;;;;7.40;1.45;;;;;;;19.50;39.75;103106.81;4230664;28;20104;-45
2022/01/12 04:58:10;;;;;;;3.95;1.48;;;;;;;19.53;39.25;103114.72;4230014;28;20031;-42
2022/01/12 05:00:17;;;;;;;5.50;1.70;;;;;;;19.53;39.39;103120.28;4213715;28;20510;-41
2022/01/12 05:09:40;;;;;;;2.63;1.70;;;;;;;19.51;38.66;103084.38;4232188;28;20035;-43
2022/01/12 05:14:12;;;;;;;1.83;1.15;;;;;;;19.48;38.72;103079.28;4207605;28;20027;-42
2022/01/12 05:16:14;;;;;;;2.90;1.45;;;;;;;19.47;38.38;103087.81;4229122;28;20425;-42
2022/01/12 05:18:18;;;;;;;3.50;1.60;;;;;;;19.45;38.60;103089.97;4230119;28;20089;-41
2022/01/12 05:20:21;;;;;;;3.03;1.35;;;;;;;19.41;38.15;103069.28;4229922;28;20508;-42
2022/01/12 05:22:22;;;;;;;4.57;1.45;;;;;;;19.38;38.43;103067.81;4230354;28;20068;-43
2022/01/12 05:24:26;;;;;;;2.05;1.42;;;;;;;19.37;38.20;103066.06;4229936;28;20479;-42
2022/01/12 05:26:28;;;;;;;3.67;1.58;;;;;;;19.30;38.30;103060.56;4230305;28;20491;-42
2022/01/12 05:28:30;;;;;;;2.45;1.63;;;;;;;19.36;37.82;103052.44;4229432;28;20428;-42
2022/01/12 05:30:35;;;;;;;2.63;1.50;;;;;;;19.26;37.77;103042.63;4229590;28;20039;-44
2022/01/12 05:32:37;;;;;;;7.50;1.63;;;;;;;19.32;37.85;103045.59;4227741;28;20437;-44
2022/01/12 05:34:39;;;;;;;3.88;1.40;;;;;;;19.27;37.55;103047.09;4228950;28;20032;-44
2022/01/12 05:36:40;;;;;;;2.42;1.20;;;;;;;19.29;37.91;103047.75;4229108;28;20051;-43
2022/01/12 05:38:42;;;;;;;3.67;1.33;;;;;;;19.28;37.56;103040.47;4229608;28;20047;-41
2022/01/12 05:40:46;;;;;;;3.83;1.27;;;;;;;19.23;37.70;103054.16;4230733;28;20128;-41
2022/01/12 05:42:50;;;;;;;4.27;1.50;;;;;;;19.25;37.41;103067.84;4230795;28;20085;-41
2022/01/12 05:44:51;;;;;;;1.83;1.27;;;;;;;19.22;37.64;103063.56;4230117;28;20108;-42
2022/01/12 05:46:54;;;;;;;1.92;1.08;;;;;;;19.22;37.60;103059.94;4230156;28;20097;-42
2022/01/12 05:51:19;;;;;;;3.10;1.27;;;;;;;19.14;37.44;103049.06;4230956;28;20539;-42
2022/01/12 05:53:26;;;;;;;2.38;1.30;;;;;;;19.17;37.07;103055.06;4230079;28;20117;-43
2022/01/12 05:55:31;;;;;;;4.93;1.40;;;;;;;19.17;37.40;103056.97;4230569;28;20043;-42
2022/01/12 05:57:33;;;;;;;1.70;1.02;;;;;;;19.13;37.27;103047.38;4230661;28;20036;-41
2022/01/12 05:59:34;;;;;;;6.47;1.80;;;;;;;19.13;37.22;103036.28;4228153;28;20043;-42
2022/01/12 06:01:36;;;;;;;2.90;1.60;;;;;;;19.12;36.96;103046.53;4230617;28;20073;-43
2022/01/12 06:03:40;;;;;;;2.22;1.35;;;;;;;19.08;36.99;103034.16;4230009;28;20105;-43
2022/01/12 06:05:42;;;;;;;4.90;1.67;;;;;;;19.13;36.73;103039.06;4229910;28;20087;-43
2022/01/12 06:07:44;;;;;;;4.50;1.65;;;;;;;19.09;37.01;103032.22;4229473;28;20051;-42
2022/01/12 06:09:45;;;;;;;3.90;1.67;;;;;;;19.09;36.85;103038.63;4229716;28;20043;-43
2022/01/12 06:11:49;;;;;;;2.00;1.35;;;;;;;19.04;36.95;103016.22;4230459;28;20548;-43
2022/01/12 06:13:52;;;;;;;2.75;1.27;;;;;;;19.05;36.87;103027.09;4230337;28;20466;-42
2022/01/12 06:15:53;;;;;;;3.28;1.50;;;;;;;19.05;36.77;103029.03;4229926;28;20044;-42
2022/01/12 06:17:57;;;;;;;1.95;1.17;;;;;;;19.03;36.38;103020.94;4229981;28;20035;-43
2022/01/12 06:19:59;;;;;;;2.65;1.50;;;;;;;19.02;36.49;103015.63;4229002;28;20100;-41
2022/01/12 06:22:00;;;;;;;2.58;1.50;;;;;;;19.00;36.29;103015.81;4228953;28;20464;-43
2022/01/12 06:24:02;;;;;;;2.65;1.45;;;;;;;18.98;36.34;103022.66;4229931;28;20470;-42
2022/01/12 06:26:03;;;;;;;3.47;1.35;;;;;;;19.00;36.46;103026.06;4230269;28;20085;-41
2022/01/12 06:32:27;;;;;;;2.97;1.73;;;;;;;18.93;36.03;102997.50;4231522;28;20031;-43
2022/01/12 06:34:28;;;;;;;3.65;1.42;;;;;;;18.96;36.04;103008.13;4217746;28;20077;-42
2022/01/12 06:36:30;;;;;;;1.25;1.13;;;;;;;18.95;36.08;102989.78;4230116;28;20089;-44
2022/01/12 06:38:31;;;;;;;2.67;1.33;;;;;;;18.94;35.96;102982.56;4231732;28;20040;-41
2022/01/12 06:40:33;;;;;;;1.92;1.40;;;;;;;18.93;36.14;102989.19;4228006;28;20092;-40
2022/01/12 06:42:34;;;;;;;3.22;1.58;;;;;;;18.93;36.12;103014.16;4231260;28;20339;-40
2022/01/12 06:44:36;;;;;;;3.10;1.63;;;;;;;18.91;35.97;103022.66;4232996;28;20096;-46
2022/01/12 06:46:37;;;;;;;3.35;1.85;;;;;;;18.91;35.58;103002.41;4231093;28;20456;-41
2022/01/12 06:48:38;;;;;;;2.97;1.30;;;;;;;18.89;35.92;102979.59;4231824;28;20036;-43
2022/01/12 06:50:40;;;;;;;2.30;1.40;;;;;;;18.88;35.55;102972.34;4232251;28;20089;-41
2022/01/12 06:52:41;;;;;;;2.80;1.42;;;;;;;18.87;35.54;102960.38;4232885;28;20039;-41
2022/01/12 06:54:45;;;;;;;2.17;1.60;;;;;;;18.86;35.65;102930.06;4232092;28;20452;-42
2022/01/12 06:56:47;;;;;;;2.28;1.33;;;;;;;18.81;35.46;102902.16;4232257;28;20040;-41
2022/01/12 06:58:49;;;;;;;2.42;1.50;;;;;;;18.84;35.61;102904.50;4223589;28;20032;-41
2022/01/12 07:00:50;;;;;;;4.80;1.55;;;;;;;18.82;35.57;102904.69;4215068;28;20097;-42
2022/01/12 07:02:51;;;;;;;1.67;1.20;;;;;;;18.82;35.72;102892.75;4215405;28;20032;-44
2022/01/12 07:04:53;;;;;;;2.67;1.73;;;;;;;18.76;35.66;102898.09;4215521;28;20097;-42
2022/01/12 07:06:57;;;;;;;2.22;1.40;;;;;;;18.11;35.75;102800.19;4215597;28;20105;-42
2022/01/12 07:09:02;;;;;;;2.28;1.40;;;;;;;18.77;35.63;102937.78;4214966;28;20471;-42
2022/01/12 07:11:03;;;;;;;2.80;1.45;;;;;;;18.78;35.50;102945.03;4216073;28;20073;-42
2022/01/12 07:13:05;;;;;;;2.55;1.70;;;;;;;18.77;35.56;102944.19;4219217;28;20417;-43
2022/01/12 07:15:07;;;;;;;3.08;1.45;;;;;;;18.76;35.43;102948.03;4216321;28;20043;-41
2022/01/12 07:17:10;;;;;;;2.60;1.63;;;;;;;18.74;35.67;102928.00;4225939;28;20040;-42
2022/01/12 07:19:11;;;;;;;3.60;1.45;;;;;;;18.73;35.38;102942.06;4230662;28;20055;-42
2022/01/12 07:21:15;;;;;;;2.70;1.48;;;;;;;18.72;35.36;102941.22;4222541;28;20059;-44
2022/01/12 07:23:19;;;;;;;2.90;1.58;;;;;;;18.71;35.46;102928.41;4228828;28;20036;-43
2022/01/12 07:25:21;;;;;;;2.88;1.70;;;;;;;18.70;35.54;102936.97;4227238;28;20044;-42
2022/01/12 07:27:25;;;;;;;1.90;1.55;;;;;;;18.69;35.37;102925.03;4215930;28;20093;-41
2022/01/12 07:29:29;;;;;;;3.28;1.83;;;;;;;18.67;35.26;102926.28;4231073;28;20560;-43
2022/01/12 07:31:32;;;;;;;2.15;1.40;;;;;;;18.65;35.33;102918.19;4232400;28;20080;-43
2022/01/12 07:33:35;;;;;;;2.70;1.50;;;;;;;18.63;35.08;102908.34;4232364;28;20494;-42
2022/01/12 07:35:37;;;;;;;1.83;1.50;;;;;;;18.63;35.14;102892.56;4231802;28;20043;-42
2022/01/12 07:37:38;;;;;;;3.28;1.67;;;;;;;18.62;35.25;102890.88;4231392;28;20035;-42
2022/01/12 07:39:40;;;;;;;2.33;1.42;;;;;;;18.60;35.43;102898.56;4230448;28;20039;-41
2022/01/12 07:41:44;;;;;;;2.33;1.35;;;;;;;18.57;34.94;102874.03;4231943;28;20047;-42
2022/01/12 07:43:45;;;;;;;3.25;1.52;;;;;;;18.58;35.06;102872.97;4231207;28;20047;-42
2022/01/12 07:45:49;;;;;;;2.30;1.55;;;;;;;18.56;35.25;102866.81;4231405;28;20024;-42
2022/01/12 07:47:54;;;;;;;3.20;1.60;;;;;;;18.32;34.78;102828.69;4231768;28;20073;-42
2022/01/12 07:49:56;;;;;;;1.67;1.20;;;;;;;18.52;34.99;102862.75;4230303;28;20028;-44
2022/01/12 07:52:00;;;;;;;1.83;1.25;;;;;;;18.51;34.96;102845.28;4229618;28;20111;-42
2022/01/12 07:54:01;;;;;;;2.83;1.60;;;;;;;18.52;35.00;102846.13;4216093;28;20657;-42
2022/01/12 07:56:03;;;;;;;2.83;1.50;;;;;;;18.49;35.18;102839.09;4227574;28;20056;-42
2022/01/12 07:58:05;;;;;;;2.30;1.40;;;;;;;18.47;35.03;102832.91;4214551;28;20040;-43
2022/01/12 08:00:07;;;;;;;2.65;1.52;;;;;;;18.48;34.97;102829.06;4215116;28;20108;-41
2022/01/12 08:02:09;;;;;;;2.35;1.40;;;;;;;18.46;34.89;102825.69;4216254;28;20116;-41
2022/01/12 08:04:10;;;;;;;2.08;1.52;;;;;;;18.44;34.88;102833.34;4215193;28;20044;-41
2022/01/12 08:06:12;;;;;;;3.05;1.77;;;;;;;18.43;34.75;102837.19;4225563;28;20478;-43
2022/01/12 08:08:15;;;;;;;2.45;1.70;;;;;;;18.44;34.81;102838.03;4214576;28;20089;-41
2022/01/12 08:10:16;;;;;;;2.58;1.40;;;;;;;18.37;34.87;102832.53;4224095;28;20156;-42
2022/01/12 08:12:18;;;;;;;2.38;1.50;;;;;;;18.39;34.94;102829.53;4213954;28;20044;-42
2022/01/12 08:14:19;;;;;;;2.30;1.15;;;;;;;18.39;34.75;102824.84;4228409;28;20040;-41
2022/01/12 08:16:23;;;;;;;2.78;1.73;;;;;;;18.39;35.07;102815.69;4218980;28;20040;-42
2022/01/12 08:18:25;;;;;;;3.00;1.60;;;;;;;18.37;35.09;102821.44;4219734;28;20031;-43
2022/01/12 08:20:28;;;;;;;2.30;1.70;;;;;;;18.35;34.95;102817.19;4227122;28;20096;-42
2022/01/12 08:22:29;;;;;;;3.67;2.00;;;;;;;18.35;34.85;102814.41;4213971;28;20433;-41
2022/01/12 08:24:31;;;;;;;2.13;1.48;;;;;;;18.31;34.99;102810.38;4230454;28;20102;-43
2022/01/12 08:26:32;;;;;;;2.83;1.48;;;;;;;18.31;34.82;102807.59;4214300;28;20048;-49
2022/01/12 08:28:35;;;;;;;1.83;1.35;;;;;;;18.30;34.94;102809.53;4229230;28;20055;-42
2022/01/12 08:30:39;;;;;;;2.60;1.65;;;;;;;18.29;34.96;102802.28;4230184;28;20128;-41
2022/01/12 08:32:47;;;;;;;1.83;1.35;;;;;;;18.25;35.02;102801.84;4215589;28;20044;-42
2022/01/12 08:34:48;;;;;;;1.65;1.20;;;;;;;18.26;34.91;102797.16;4213979;28;20035;-43
2022/01/12 08:36:50;;;;;;;2.45;1.58;;;;;;;18.26;35.02;102798.00;4221836;28;20036;-42
2022/01/12 08:38:51;;;;;;;2.47;1.75;;;;;;;18.20;34.81;102781.41;4228800;28;20093;-42
2022/01/12 08:40:53;;;;;;;2.17;1.30;;;;;;;18.23;34.80;102781.81;4225032;28;20047;-41
2022/01/12 08:42:55;;;;;;;2.85;1.40;;;;;;;18.22;34.81;102785.66;4206463;28;20052;-42
2022/01/12 08:45:00;;;;;;;1.60;1.27;;;;;;;18.21;34.76;102786.72;4229314;28;20040;-41
2022/01/12 08:47:01;;;;;;;;;;;;;;;18.17;34.73;102787.38;4214503;28;20052;-41
2022/01/12 08:49:06;;;;;;;2.17;1.40;;;;;;;18.22;34.91;102782.03;4214697;28;19931;-45
2022/01/12 08:51:07;;;;;;;2.33;1.50;;;;;;;18.21;34.93;102781.19;4226552;28;20559;-42
2022/01/12 08:53:09;;;;;;;1.92;1.30;;;;;;;18.21;34.55;102781.19;4215211;28;20036;-41
2022/01/12 08:55:12;;;;;;;2.67;1.40;;;;;;;18.21;34.98;102775.66;4214376;28;20077;-42
2022/01/12 08:57:14;;;;;;;3.22;1.33;;;;;;;18.23;34.63;102765.19;4225239;28;20044;-42
2022/01/12 08:59:16;;;;;;;1.73;1.33;;;;;;;18.24;34.74;102772.44;4213008;28;20043;-43
2022/01/12 09:01:17;;;;;;;1.48;1.13;;;;;;;18.25;34.53;102776.06;4218093;28;20116;-41
2022/01/12 09:03:18;;;;;;;2.05;1.38;;;;;;;18.26;34.16;102775.00;4229972;28;20068;-43
2022/01/12 09:05:23;;;;;;;2.10;1.33;;;;;;;18.25;34.52;102767.75;4230576;28;20100;-43
2022/01/12 09:07:24;;;;;;;2.53;1.88;;;;;;;18.26;34.49;102773.06;4229322;28;20069;-43
2022/01/12 09:09:30;;;;;;;2.33;1.40;;;;;;;18.25;34.35;102765.84;4230208;28;20393;-42
2022/01/12 09:11:32;;;;;;;2.33;1.35;;;;;;;18.24;34.33;102761.38;4230942;28;20039;-42
2022/01/12 09:13:33;;;;;;;1.55;1.20;;;;;;;18.19;34.08;102746.44;4230421;28;20065;-42
2022/01/12 09:15:35;;;;;;;2.92;1.40;;;;;;;18.18;34.08;102745.59;4229885;28;20040;-42
2022/01/12 09:17:37;;;;;;;2.55;1.65;;;;;;;18.20;34.08;102753.72;4230794;28;20031;-42
2022/01/12 09:19:39;;;;;;;2.65;1.42;;;;;;;18.19;34.01;102727.94;4230264;28;20043;-42
2022/01/12 09:21:40;;;;;;;2.60;1.23;;;;;;;18.18;34.30;102717.03;4230231;28;20073;-43
2022/01/12 09:23:44;;;;;;;2.53;1.48;;;;;;;18.15;33.97;102718.34;4229735;28;20422;-42
2022/01/12 09:25:45;;;;;;;2.00;1.30;;;;;;;18.14;33.85;102705.53;4230337;28;20108;-43
2022/01/12 09:27:47;;;;;;;2.22;1.30;;;;;;;18.14;34.10;102704.69;4230066;28;20027;-44
2022/01/12 09:29:48;;;;;;;3.35;1.70;;;;;;;18.09;34.08;102708.13;4230335;28;20027;-42
2022/01/12 09:31:50;;;;;;;2.63;1.50;;;;;;;18.01;34.32;102708.38;4227152;28;20044;-42
2022/01/12 09:33:51;;;;;;;2.00;1.33;;;;;;;17.92;34.61;102701.38;4212892;28;20089;-44
2022/01/12 09:35:56;;;;;;;2.10;1.35;;;;;;;17.91;35.05;102699.66;4212133;28;20101;-41
2022/01/12 09:37:57;;;;;;;1.75;1.27;;;;;;;17.84;35.15;102682.22;4213683;28;20048;-41
2022/01/12 09:39:59;;;;;;;3.08;1.58;;;;;;;17.85;35.12;102679.25;4213461;28;20028;-41
2022/01/12 09:42:01;;;;;;;2.28;1.38;;;;;;;17.85;34.89;102672.84;4212895;28;20081;-42
2022/01/12 09:44:03;;;;;;;2.78;1.50;;;;;;;17.86;34.93;102663.47;4214002;28;20089;-43
2022/01/12 09:46:07;;;;;;;1.98;1.40;;;;;;;17.88;34.68;102661.34;4196183;28;20036;-43
2022/01/12 09:48:10;;;;;;;2.33;1.50;;;;;;;17.87;34.97;102654.09;4213106;28;20125;-42
2022/01/12 09:50:13;;;;;;;2.58;1.30;;;;;;;17.90;34.59;102659.19;4219205;28;20096;-42
2022/01/12 09:52:15;;;;;;;2.45;1.58;;;;;;;17.92;34.29;102646.84;4230145;28;20048;-44
2022/01/12 09:54:18;;;;;;;1.83;1.35;;;;;;;17.95;34.05;102645.53;4229980;28;20036;-41
2022/01/12 09:56:28;;;;;;;2.08;1.20;;;;;;;17.96;34.22;102638.91;4229602;28;20035;-42
2022/01/12 09:58:33;;;;;;;2.17;1.30;;;;;;;17.98;33.71;102631.25;4206709;28;20481;-42
2022/01/12 10:00:34;;;;;;;3.13;1.60;;;;;;;18.00;33.82;102627.19;4213136;28;20044;-41
2022/01/12 10:02:41;;;;;;;1.77;1.20;;;;;;;18.02;33.80;102621.44;4221223;28;20035;-42
2022/01/12 10:04:43;;;;;;;1.27;1.10;;;;;;;18.03;33.38;102621.22;4226497;28;20101;-43
2022/01/12 10:06:52;;;;;;;1.65;1.20;;;;;;;18.09;33.72;102613.06;4220642;28;20032;-41
2022/01/12 10:08:54;;;;;;;2.25;1.48;;;;;;;18.13;33.52;102614.34;4216723;28;20101;-43
2022/01/12 10:11:09;;;;;;;2.65;1.45;;;;;;;18.16;33.25;102605.59;4218156;28;20040;-44
2022/01/12 10:13:25;;;;;;;1.38;1.10;;;;;;;18.13;32.92;102603.25;4225642;28;20031;-41
2022/01/12 10:15:29;;;;;;;2.58;1.50;;;;;;;18.19;32.72;102603.25;4217399;28;20047;-41
2022/01/12 10:17:51;;;;;;;2.08;1.40;;;;;;;18.18;33.14;102593.19;4216114;28;20093;-41
2022/01/12 10:20:23;;;;;;;2.20;1.60;;;;;;;18.22;32.75;102597.22;4215693;28;20043;-41
2022/01/12 10:22:24;;;;;;;1.92;1.20;;;;;;;18.25;32.66;102584.88;4216573;28;20048;-42
2022/01/12 10:24:28;;;;;;;1.92;1.10;;;;;;;18.22;32.85;102580.59;4215764;28;20421;-43
2022/01/12 10:26:41;;;;;;;2.05;1.40;;;;;;;18.25;32.74;102591.25;4215568;28;20044;-41
2022/01/12 10:28:42;;;;;;;1.98;1.10;;;;;;;18.29;32.90;102588.88;4216027;28;20032;-41
2022/01/12 10:31:03;;;;;;;2.03;1.60;;;;;;;18.26;32.64;102576.31;4222379;28;20035;-42
2022/01/12 10:33:10;;;;;;;1.75;1.27;;;;;;;18.28;32.90;102585.28;4232478;28;20092;-42
2022/01/12 10:35:11;;;;;;;1.80;1.17;;;;;;;18.29;32.56;102580.56;4232448;28;20452;-42
2022/01/12 10:37:15;;;;;;;3.08;1.30;;;;;;;18.28;32.75;102585.28;4232276;28;20040;-42
2022/01/12 10:39:18;;;;;;;1.83;1.20;;;;;;;18.28;32.72;102589.97;4232186;28;20043;-41
2022/01/12 10:41:19;;;;;;;2.28;1.40;;;;;;;18.29;32.78;102586.97;4233010;28;20540;-42
2022/01/12 10:43:35;;;;;;;2.28;1.10;;;;;;;18.28;32.98;102579.72;4233281;28;20024;-42
2022/01/12 10:45:36;;;;;;;2.40;1.27;;;;;;;18.29;32.69;102569.50;4232820;28;20385;-42
2022/01/12 10:47:38;;;;;;;1.58;1.10;;;;;;;18.31;32.89;102560.94;4232509;28;20566;-43
2022/01/12 10:49:56;;;;;;;2.08;1.40;;;;;;;18.29;32.93;102553.72;4232907;28;20024;-43
2022/01/12 10:51:58;;;;;;;1.88;1.25;;;;;;;18.29;32.86;102556.47;4232616;28;20039;-44
2022/01/12 10:54:02;;;;;;;2.30;1.38;;;;;;;18.29;33.07;102558.41;4232251;28;20573;-42
2022/01/12 10:56:11;;;;;;;1.83;1.40;;;;;;;18.27;32.94;102561.38;4232598;28;20043;-42
2022/01/12 10:58:19;;;;;;;2.05;1.30;;;;;;;18.26;32.86;102565.22;4232025;28;20043;-43
2022/01/12 11:00:24;;;;;;;1.80;1.30;;;;;;;18.22;33.11;102555.66;4231964;28;20088;-42
2022/01/12 11:02:28;;;;;;;1.60;1.20;;;;;;;18.27;33.14;102558.59;4232497;28;20047;-45